Terminal Aerodrome Forecast
Issued by NWS Albany, NY

Home | Current Version | Previous Version | Text Only | Print | Product List | Glossary On
Versions: 1 2 3 4 5 6 7 8 9 10 11 12 13 14 15 16 17 18 19 20 21 22 23 24 25 26
000
FTUS41 KALY 230500
TAFPOU
TAF
KPOU 230523Z 2306/2406 36012G18KT 6SM -RA OVC015
      TEMPO 2306/2310 4SM RA BR OVC012
     FM231000 36010G16KT 6SM -RA BR OVC012
      TEMPO 2310/2314 4SM RA BR
     FM231700 35012G20KT 6SM -RA BR OVC030=

USA.gov is the U.S. government's official web portal to all federal, state and local government web resources and services.